Nearby METAR Reports

 

CYOW - Ottawa Intl, Ontario, Canada
Distance from station: NNW 27km
Updated: 11/27/2020 5:54pm
Overcast
Overcast
 Wind from varies
Wind: varies 4 km/h
Temperature: 2°C
Dew Point: 1°C
Humidity: 93%
Barometer: 1014.2 hPa
Clouds: Overcast
Visibility: 24 km
Cloud details: Overcast 1341 m
2020/11/27 22:54 CYOW 272254Z VRB02KT 15SM OVC044 02/01 A2995 RMK SC8 SLP150
KMSS - Massena, New York, USA
Distance from station: ESE 54km
Updated: 11/27/2020 5:53pm
Overcast
Overcast
 Wind from S
Wind: S 7 km/h
Temperature: 6°C
Wind Chill: 4°C
Dew Point: 3°C
Humidity: 81%
Barometer: 1015.2 hPa
Clouds: Overcast
Visibility: 16 km
Cloud details: Overcast 1128 m
2020/11/27 22:53 KMSS 272253Z AUTO 18004KT 10SM OVC037 06/03 A2998 RMK AO2 SLP155 T00610033
KOGS - Ogdensburg Intl, New York, USA
Distance from station: S 48km
Updated: 11/27/2020 5:55pm
Overcast
Overcast
 Wind from varies
Wind: varies 7 km/h
Temperature: 7°C
Wind Chill: 6°C
Dew Point: 4°C
Humidity: 81%
Barometer: 1014.2 hPa
Clouds: Overcast
Visibility: 16 km
Cloud details: Few Clouds 579 m
Mostly cloudy 1006 m
Overcast 1280 m
2020/11/27 22:55 KOGS 272255Z AUTO VRB04KT 10SM FEW019 BKN033 OVC042 07/04 A2995 RMK AO2
 
CXKE - Kemptville, Ontario, Canada
Distance from station: SW 15km
Updated: 11/27/2020 5:00pm

 Wind from SW
Wind: SW 4 km/h
Temperature: 3°C
Dew Point: 3°C
Humidity: 100%
2020/11/27 22:00 CXKE 272200Z AUTO 23002KT 03/03 RMK AO1 SLP148 T00330032 58004